Time;durP1;ratioP1;P1;durP2;ratioP2;P2;SDS_P1;SDS_P2;PMS_P1;PMS_P2;Temp;Humidity;BMP_temperature;BMP_pressure;BME280_temperature;BME280_humidity;BME280_pressure;Samples;Min_cycle;Max_cycle;Signal;HPM_P1;HPM_P2
2022/07/10 00:00:35;;;;;;;1.93;1.83;;;;;;;18.85;100.00;96780.13;5051261;27;102443;-64
2022/07/10 00:03:03;;;;;;;4.17;1.77;;;;;;;18.89;100.00;96781.16;5050667;27;103707;-64
2022/07/10 00:05:35;;;;;;;1.97;1.60;;;;;;;18.93;100.00;96775.97;5051140;27;102139;-64
2022/07/10 00:08:02;;;;;;;1.83;1.60;;;;;;;18.94;100.00;96769.50;5054161;27;102326;-64
2022/07/10 00:10:30;;;;;;;1.97;1.83;;;;;;;18.88;100.00;96767.97;5049518;27;101994;-64
2022/07/10 00:12:57;;;;;;;2.00;1.67;;;;;;;18.79;100.00;96767.84;5051194;27;102510;-64
2022/07/10 00:15:25;;;;;;;2.00;1.90;;;;;;;18.74;100.00;96762.53;5050290;27;102576;-64
2022/07/10 00:17:52;;;;;;;2.80;1.83;;;;;;;18.67;100.00;96767.50;5049123;27;101906;-64
2022/07/10 00:20:19;;;;;;;2.00;1.80;;;;;;;18.68;100.00;96761.00;5049331;27;104047;-64
2022/07/10 00:22:48;;;;;;;2.87;1.83;;;;;;;18.61;100.00;96763.28;5048868;27;105635;-64
2022/07/10 00:25:15;;;;;;;2.17;2.00;;;;;;;18.40;100.00;96763.84;5050781;27;101972;-64
2022/07/10 00:27:43;;;;;;;3.17;2.00;;;;;;;18.22;100.00;96775.34;5051090;27;102460;-64
2022/07/10 00:30:11;;;;;;;1.97;1.87;;;;;;;18.38;100.00;96774.09;5053569;27;102111;-64
2022/07/10 00:32:39;;;;;;;3.97;2.00;;;;;;;18.44;100.00;96762.16;5050507;27;102812;-64
2022/07/10 00:35:07;;;;;;;2.60;1.60;;;;;;;18.51;100.00;96757.22;5050116;27;102593;-64
2022/07/10 00:37:36;;;;;;;2.40;1.80;;;;;;;18.53;100.00;96765.81;5050878;27;101719;-64
2022/07/10 00:40:05;;;;;;;2.33;2.10;;;;;;;18.50;100.00;96761.81;5050168;27;103999;-64
2022/07/10 00:42:33;;;;;;;2.73;2.20;;;;;;;18.61;100.00;96765.16;5049946;27;102475;-64
2022/07/10 00:45:00;;;;;;;3.30;2.20;;;;;;;18.59;100.00;96761.97;5050453;27;101822;-64
2022/07/10 00:47:28;;;;;;;2.50;2.10;;;;;;;18.46;100.00;96760.78;5050500;27;102301;-64
2022/07/10 00:49:55;;;;;;;2.80;2.17;;;;;;;18.51;100.00;96757.22;5049884;27;102593;-64
2022/07/10 00:52:23;;;;;;;2.50;2.30;;;;;;;18.51;100.00;96752.63;5053283;27;101951;-64
2022/07/10 00:54:52;;;;;;;5.13;2.50;;;;;;;18.52;100.00;96759.63;5049930;27;103091;-64
2022/07/10 00:57:23;;;;;;;5.37;3.00;;;;;;;18.26;100.00;96768.31;5050630;27;101714;-64
2022/07/10 00:59:51;;;;;;;4.10;3.10;;;;;;;18.32;100.00;96757.19;5050302;27;102408;-64
2022/07/10 01:02:18;;;;;;;3.80;2.63;;;;;;;18.47;100.00;96761.59;5048202;27;105242;-64
2022/07/10 01:04:46;;;;;;;5.70;2.97;;;;;;;18.54;100.00;96762.81;5050308;27;101797;-64
2022/07/10 01:07:15;;;;;;;4.30;2.63;;;;;;;18.44;100.00;96762.16;5050659;27;102396;-64
2022/07/10 01:09:43;;;;;;;4.20;3.20;;;;;;;18.27;100.00;96768.03;5053296;27;102602;-64
2022/07/10 01:12:12;;;;;;;3.80;3.07;;;;;;;18.29;100.00;96762.34;5053862;27;101802;-64
2022/07/10 01:14:42;;;;;;;2.97;2.63;;;;;;;18.28;100.00;96756.16;5056545;27;102336;-64
2022/07/10 01:17:09;;;;;;;5.63;2.83;;;;;;;18.30;100.00;96745.09;5052307;27;101834;-64
2022/07/10 01:19:37;;;;;;;3.07;2.70;;;;;;;18.20;100.00;96756.00;5053757;27;102258;-64
2022/07/10 01:22:06;;;;;;;3.63;2.63;;;;;;;18.08;100.00;96759.13;5051515;27;105401;-64
2022/07/10 01:24:33;;;;;;;3.10;2.70;;;;;;;18.10;100.00;96759.63;5052450;27;101940;-64
2022/07/10 01:27:00;;;;;;;5.07;3.07;;;;;;;18.02;100.00;96756.75;5053668;27;102496;-64
2022/07/10 01:29:28;;;;;;;4.50;3.13;;;;;;;17.96;100.00;96766.00;5051633;27;102671;-64
2022/07/10 01:31:55;;;;;;;4.43;3.10;;;;;;;17.83;100.00;96764.00;5053389;27;101837;-64
2022/07/10 01:34:22;;;;;;;4.10;3.70;;;;;;;17.75;100.00;96765.44;5053668;27;102534;-64
2022/07/10 01:36:50;;;;;;;4.20;3.70;;;;;;;17.67;100.00;96767.94;5056382;27;102774;-64
2022/07/10 01:39:20;;;;;;;5.33;3.90;;;;;;;17.71;100.00;96774.38;5052130;27;103728;-64
2022/07/10 01:41:47;;;;;;;5.63;3.77;;;;;;;17.57;100.00;96778.81;5051037;27;105592;-64
2022/07/10 01:44:15;;;;;;;4.20;3.80;;;;;;;17.34;100.00;96788.41;5052001;27;101973;-64
2022/07/10 01:46:46;;;;;;;4.60;3.77;;;;;;;17.26;100.00;96786.34;5051659;27;105003;-64
2022/07/10 01:49:13;;;;;;;5.20;3.37;;;;;;;17.16;100.00;96783.72;5051310;27;105666;-64
2022/07/10 01:51:42;;;;;;;3.40;2.90;;;;;;;17.20;100.00;96786.66;5051636;27;102274;-64
2022/07/10 01:54:09;;;;;;;5.40;3.47;;;;;;;17.08;100.00;96787.03;5051077;27;105490;-64
2022/07/10 01:56:38;;;;;;;5.10;3.20;;;;;;;16.94;100.00;96790.66;5050813;27;106013;-64
2022/07/10 01:59:05;;;;;;;3.70;3.33;;;;;;;16.99;100.00;96791.41;5055213;27;101819;-64
2022/07/10 02:01:33;;;;;;;4.47;3.00;;;;;;;16.93;100.00;96799.75;5050831;27;104004;-64
2022/07/10 02:06:44;;;;;;;3.50;3.20;;;;;;;16.94;100.00;96786.06;5051513;27;105098;-64
2022/07/10 02:09:11;;;;;;;4.23;3.63;;;;;;;16.91;100.00;96791.19;5050620;27;105821;-64
2022/07/10 02:11:39;;;;;;;4.50;3.57;;;;;;;16.81;100.00;96788.56;5051422;27;101886;-64
2022/07/10 02:14:08;;;;;;;4.33;3.40;;;;;;;16.79;100.00;96788.06;5051454;27;105398;-64
2022/07/10 02:16:35;;;;;;;5.87;3.63;;;;;;;16.94;100.00;96780.69;5052240;27;102613;-64
2022/07/10 02:19:04;;;;;;;5.20;4.07;;;;;;;16.72;100.00;96782.19;5054000;27;102037;-64
2022/07/10 02:21:31;;;;;;;4.83;3.70;;;;;;;16.77;100.00;96784.84;5048637;27;105583;-64
2022/07/10 02:23:58;;;;;;;4.97;4.10;;;;;;;16.69;100.00;96790.81;5052763;27;101832;-64
2022/07/10 02:26:26;;;;;;;4.37;3.97;;;;;;;16.73;100.00;96794.56;5052726;27;102448;-64
2022/07/10 02:28:54;;;;;;;3.57;3.27;;;;;;;16.93;100.00;96794.41;5051826;27;102656;-64
2022/07/10 02:31:21;;;;;;;4.37;3.90;;;;;;;16.92;100.00;96790.13;5051350;27;102087;-64
2022/07/10 02:33:48;;;;;;;4.90;4.10;;;;;;;16.91;100.00;96801.94;5052572;27;102635;-64
2022/07/10 02:36:15;;;;;;;4.10;3.47;;;;;;;16.91;100.00;96801.94;5050556;27;104292;-64
2022/07/10 02:38:42;;;;;;;4.73;4.30;;;;;;;16.86;100.00;96799.28;5051024;27;101929;-64
2022/07/10 02:41:10;;;;;;;5.13;4.17;;;;;;;16.80;100.00;96803.09;5053748;27;105248;-64
2022/07/10 02:43:37;;;;;;;5.43;4.40;;;;;;;16.75;100.00;96803.94;5052445;27;101835;-64
2022/07/10 02:46:06;;;;;;;4.50;3.93;;;;;;;16.63;100.00;96803.47;5051130;27;105161;-64
2022/07/10 02:48:33;;;;;;;5.00;4.27;;;;;;;16.78;100.00;96799.91;5050241;27;105468;-64
2022/07/10 02:51:00;;;;;;;5.63;4.93;;;;;;;16.76;100.00;96813.59;5050278;27;102115;-64
2022/07/10 02:53:27;;;;;;;5.97;5.40;;;;;;;16.55;100.00;96805.94;5052082;27;102313;-64
2022/07/10 02:55:54;;;;;;;7.90;6.13;;;;;;;16.69;100.00;96796.19;5050229;27;105547;-64
2022/07/10 02:58:22;;;;;;;7.20;6.47;;;;;;;16.51;100.00;96794.16;5050813;27;101945;-64
2022/07/10 03:00:48;;;;;;;8.57;6.70;;;;;;;16.11;100.00;96800.50;5050564;27;105296;-64
2022/07/10 03:03:18;;;;;;;8.83;6.77;;;;;;;16.11;100.00;96799.69;5053637;27;105094;-64
2022/07/10 03:05:45;;;;;;;8.83;7.33;;;;;;;15.96;100.00;96805.13;5050739;27;105616;-64
2022/07/10 03:08:13;;;;;;;8.60;7.73;;;;;;;15.97;100.00;96812.88;5050035;27;106271;-64
2022/07/10 03:10:41;;;;;;;8.93;7.50;;;;;;;15.92;100.00;96807.53;5050418;27;102152;-64
2022/07/10 03:13:08;;;;;;;9.20;8.03;;;;;;;15.91;100.00;96813.97;5050518;27;103729;-64
2022/07/10 03:15:35;;;;;;;9.33;8.30;;;;;;;16.03;100.00;96795.69;5049823;27;106608;-64
2022/07/10 03:18:02;;;;;;;8.97;8.07;;;;;;;15.83;100.00;96803.00;5050420;27;102203;-64
2022/07/10 03:20:31;;;;;;;9.17;8.37;;;;;;;15.82;100.00;96804.09;5051639;27;102381;-64
2022/07/10 03:22:57;;;;;;;8.90;8.00;;;;;;;15.67;100.00;96807.63;5051129;27;104376;-64
2022/07/10 03:25:25;;;;;;;10.00;8.10;;;;;;;15.60;100.00;96817.81;5053890;27;101947;-64
2022/07/10 03:27:51;;;;;;;9.80;8.40;;;;;;;15.56;100.00;96814.06;5049795;27;106096;-64
2022/07/10 03:30:19;;;;;;;9.57;8.67;;;;;;;15.57;100.00;96817.53;5049925;27;101923;-64
2022/07/10 03:32:47;;;;;;;8.53;7.63;;;;;;;15.86;100.00;96819.34;5049329;27;105489;-64
2022/07/10 03:35:14;;;;;;;8.77;7.97;;;;;;;16.03;100.00;96808.31;5051100;27;102605;-64
2022/07/10 03:37:44;;;;;;;8.70;7.80;;;;;;;16.04;100.00;96812.59;5050121;27;102056;-64
2022/07/10 03:40:11;;;;;;;9.27;8.37;;;;;;;16.04;100.00;96817.97;5050144;27;105036;-64
2022/07/10 03:42:38;;;;;;;9.30;7.60;;;;;;;15.95;100.00;96811.53;5049151;27;105125;-64
2022/07/10 03:45:07;;;;;;;8.50;7.70;;;;;;;16.05;100.00;96816.88;5050144;27;101968;-64
2022/07/10 03:47:34;;;;;;;8.90;8.13;;;;;;;15.99;100.00;96807.25;5052898;27;105301;-64
2022/07/10 03:50:02;;;;;;;9.03;8.07;;;;;;;15.97;100.00;96799.47;5049867;27;102232;-64
2022/07/10 03:52:29;;;;;;;8.57;7.67;;;;;;;15.93;100.00;96806.47;5049338;27;106038;-64
2022/07/10 03:54:57;;;;;;;8.83;8.13;;;;;;;15.95;100.00;96800.81;5048915;27;105455;-64
2022/07/10 04:00:10;;;;;;;9.23;8.33;;;;;;;15.72;100.00;96810.28;5049819;27;105233;-64
2022/07/10 04:02:40;;;;;;;9.37;8.67;;;;;;;15.73;100.00;96808.41;5050879;27;102602;-64
2022/07/10 04:05:08;;;;;;;8.17;7.47;;;;;;;15.90;100.00;96800.84;5051171;27;101847;-64
2022/07/10 04:07:35;;;;;;;7.80;7.20;;;;;;;16.07;100.00;96801.34;5049856;27;105201;-64
2022/07/10 04:10:05;;;;;;;8.73;7.93;;;;;;;16.11;100.00;96799.69;5053399;27;101839;-64
2022/07/10 04:12:32;;;;;;;6.83;6.27;;;;;;;16.22;100.00;96793.19;5050927;27;102861;-64
2022/07/10 04:15:00;;;;;;;7.80;7.13;;;;;;;16.23;100.00;96790.25;5050427;27;102584;-64
2022/07/10 04:17:26;;;;;;;7.00;6.50;;;;;;;16.31;100.00;96796.91;5050838;27;102455;-64
2022/07/10 04:19:53;;;;;;;6.30;5.80;;;;;;;16.48;100.00;96792.03;5049454;27;105413;-64
2022/07/10 04:22:21;;;;;;;7.23;6.33;;;;;;;16.51;100.00;96802.22;5050354;27;102618;-64
2022/07/10 04:24:48;;;;;;;6.77;6.27;;;;;;;16.36;100.00;96794.22;5032455;27;101959;-64
2022/07/10 04:27:17;;;;;;;7.30;6.70;;;;;;;16.21;100.00;96788.91;5051028;27;102895;-64
2022/07/10 04:29:44;;;;;;;7.40;6.80;;;;;;;16.02;100.00;96783.34;5052056;27;104280;-64
2022/07/10 04:32:11;;;;;;;7.60;6.80;;;;;;;15.83;100.00;96779.69;5049477;27;105319;-64
2022/07/10 04:34:38;;;;;;;7.00;6.40;;;;;;;15.94;100.00;96788.50;5048611;27;105330;-64
2022/07/10 04:37:07;;;;;;;8.07;7.37;;;;;;;15.88;100.00;96786.91;5049357;27;102164;-64
2022/07/10 04:39:34;;;;;;;7.33;6.73;;;;;;;16.00;100.00;96774.78;5049032;27;105533;-64
2022/07/10 04:42:03;;;;;;;7.13;6.53;;;;;;;15.96;100.00;96775.63;5048086;27;104112;-64
2022/07/10 04:44:31;;;;;;;7.80;7.13;;;;;;;15.93;100.00;96784.22;5049241;27;102008;-64
2022/07/10 04:46:58;;;;;;;7.53;6.93;;;;;;;15.98;100.00;96787.66;5049025;27;105062;-64
2022/07/10 04:49:26;;;;;;;7.63;6.93;;;;;;;16.06;100.00;96788.97;5048522;27;105567;-64
2022/07/10 04:51:53;;;;;;;7.23;6.43;;;;;;;16.16;100.00;96791.63;5051726;27;102004;-64
2022/07/10 04:54:22;;;;;;;6.50;6.00;;;;;;;16.36;100.00;96783.47;5049586;27;103648;-64
2022/07/10 04:56:49;;;;;;;7.93;7.23;;;;;;;16.14;100.00;96786.50;5049028;27;102205;-64
2022/07/10 04:59:16;;;;;;;7.57;6.73;;;;;;;16.36;100.00;96780.78;5049090;27;105798;-64
2022/07/10 05:01:45;;;;;;;7.00;6.40;;;;;;;16.56;100.00;96788.75;5048223;27;105387;-64
2022/07/10 05:04:12;;;;;;;7.67;6.87;;;;;;;16.51;100.00;96786.09;5048602;27;101981;-64
2022/07/10 05:06:41;;;;;;;6.80;6.27;;;;;;;16.54;100.00;96780.16;5048975;27;106323;-64
2022/07/10 05:09:08;;;;;;;6.30;5.70;;;;;;;16.64;100.00;96791.66;5048113;27;105430;-64
2022/07/10 05:11:35;;;;;;;6.63;6.13;;;;;;;16.57;100.00;96788.47;5048884;27;101925;-64
2022/07/10 05:14:02;;;;;;;6.50;5.87;;;;;;;16.75;100.00;96797.75;5051397;27;105202;-64
2022/07/10 05:16:30;;;;;;;6.87;6.33;;;;;;;16.76;100.00;96800.16;5049842;27;101862;-64
2022/07/10 05:19:00;;;;;;;7.13;6.57;;;;;;;16.82;100.00;96798.25;5050373;27;102868;-64
2022/07/10 05:21:27;;;;;;;7.37;6.67;;;;;;;16.77;100.00;96801.78;5047911;27;105863;-64
2022/07/10 05:23:54;;;;;;;6.30;5.80;;;;;;;16.74;100.00;96806.91;5048792;27;102251;-64
2022/07/10 05:26:21;;;;;;;7.40;6.80;;;;;;;16.78;100.00;96797.22;5048613;27;105238;-64
2022/07/10 05:28:49;;;;;;;6.83;6.23;;;;;;;16.73;100.00;96810.66;5047766;27;104352;-64
2022/07/10 05:31:15;;;;;;;7.23;6.60;;;;;;;16.61;100.00;96811.00;5048459;27;101979;-64
2022/07/10 05:33:43;;;;;;;7.47;6.87;;;;;;;16.58;100.00;96808.84;5048488;27;105895;-64
2022/07/10 05:36:12;;;;;;;7.00;6.40;;;;;;;16.50;100.00;96812.16;5051456;27;104375;-64
2022/07/10 05:38:39;;;;;;;7.30;6.80;;;;;;;16.59;100.00;96807.81;5048316;27;105299;-64
2022/07/10 05:41:06;;;;;;;7.60;6.87;;;;;;;16.74;100.00;96809.59;5047891;27;105350;-64
2022/07/10 05:43:33;;;;;;;7.00;6.40;;;;;;;16.86;100.00;96810.03;5048510;27;101934;-64
2022/07/10 05:46:00;;;;;;;6.97;6.33;;;;;;;16.76;100.00;96807.41;5048364;27;104609;-64
2022/07/10 05:48:28;;;;;;;6.47;5.87;;;;;;;16.99;100.00;96807.53;5047413;27;105544;-64
2022/07/10 05:50:55;;;;;;;6.90;6.30;;;;;;;17.07;100.00;96806.13;5047708;27;101986;-64
2022/07/10 05:53:24;;;;;;;7.10;6.50;;;;;;;17.00;100.00;96805.66;5049656;27;102347;-64
2022/07/10 05:55:51;;;;;;;6.40;5.90;;;;;;;16.72;100.00;96806.34;5051572;27;102520;-64
2022/07/10 05:58:18;;;;;;;6.00;5.60;;;;;;;16.80;100.00;96811.16;5056748;27;101776;-64
2022/07/10 06:00:46;;;;;;;6.07;5.57;;;;;;;16.69;100.00;96809.63;5050880;27;105907;-64
2022/07/10 06:03:13;;;;;;;6.43;5.93;;;;;;;16.64;100.00;96812.34;5053156;27;101802;-64
2022/07/10 06:05:40;;;;;;;6.77;6.17;;;;;;;16.69;100.00;96820.34;5051469;27;106059;-64
2022/07/10 06:08:08;;;;;;;6.30;5.80;;;;;;;16.70;100.00;96811.22;5050941;27;103878;-64
2022/07/10 06:10:36;;;;;;;6.13;5.63;;;;;;;16.83;100.00;96810.59;5051605;27;101876;-62
2022/07/10 06:13:03;;;;;;;6.10;5.60;;;;;;;16.73;100.00;96805.31;5052943;27;102336;-62
2022/07/10 06:15:31;;;;;;;6.77;5.73;;;;;;;16.99;100.00;96815.59;5050781;27;106342;-62
2022/07/10 06:17:58;;;;;;;6.47;5.87;;;;;;;16.75;100.00;96813.88;5054866;27;102085;-62
2022/07/10 06:20:26;;;;;;;6.07;5.47;;;;;;;17.03;100.00;96813.94;5050587;27;104066;-62
2022/07/10 06:22:53;;;;;;;5.67;5.27;;;;;;;16.83;100.00;96806.03;5052578;27;101837;-62
2022/07/10 06:25:21;;;;;;;5.93;5.33;;;;;;;17.10;100.00;96797.47;5052833;27;102428;-62
2022/07/10 06:27:50;;;;;;;9.10;5.80;;;;;;;17.38;100.00;96794.03;5051136;27;102695;-62
2022/07/10 06:30:17;;;;;;;5.80;5.30;;;;;;;17.32;100.00;96784.38;5052648;27;101814;-62
2022/07/10 06:32:45;;;;;;;5.77;5.27;;;;;;;16.97;100.00;96787.38;5051048;27;103710;-62
2022/07/10 06:35:12;;;;;;;5.80;5.23;;;;;;;17.19;100.00;96799.31;5051937;27;102864;-62
2022/07/10 06:37:39;;;;;;;5.47;5.07;;;;;;;17.08;100.00;96802.34;5052768;27;101765;-62
2022/07/10 06:40:07;;;;;;;5.70;4.97;;;;;;;17.13;100.00;96794.25;5053983;27;105201;-62
2022/07/10 06:42:35;;;;;;;5.77;5.20;;;;;;;16.86;100.00;96804.66;5051119;27;102057;-62
2022/07/10 06:45:04;;;;;;;5.77;5.27;;;;;;;16.80;100.00;96805.78;5052332;27;102527;-62
2022/07/10 06:50:15;;;;;;;5.57;5.07;;;;;;;16.90;100.00;96795.75;5052056;27;102161;-63
2022/07/10 06:52:42;;;;;;;5.97;5.47;;;;;;;16.91;100.00;96797.38;5052495;27;102315;-62
2022/07/10 06:55:10;;;;;;;5.40;5.00;;;;;;;16.99;100.00;96793.28;5050026;27;103907;-62
2022/07/10 06:57:39;;;;;;;5.40;4.90;;;;;;;17.00;100.00;96805.66;5050834;27;101856;-62
2022/07/10 07:00:11;;;;;;;5.40;5.00;;;;;;;16.93;100.00;96805.13;5052193;27;102594;-62
2022/07/10 07:02:38;;;;;;;5.70;5.10;;;;;;;16.94;100.00;96801.41;5055117;27;102574;-62
2022/07/10 07:05:06;;;;;;;5.47;5.07;;;;;;;16.98;100.00;96789.00;5051753;27;102512;-62
2022/07/10 07:07:33;;;;;;;5.47;5.10;;;;;;;16.91;100.00;96792.00;5051546;27;103295;-62
2022/07/10 07:10:00;;;;;;;5.47;5.00;;;;;;;17.27;100.00;96787.16;5052135;27;102196;-62
2022/07/10 07:12:27;;;;;;;6.53;5.20;;;;;;;17.54;100.00;96790.16;5050659;27;106420;-62
2022/07/10 07:14:54;;;;;;;5.47;5.07;;;;;;;17.59;100.00;96787.38;5051222;27;102648;-62
2022/07/10 07:17:24;;;;;;;5.40;5.00;;;;;;;17.85;100.00;96791.41;5052170;27;101856;-62
2022/07/10 07:25:23;;;;;;;6.17;5.57;;;;;;;17.97;100.00;96783.72;5055327;27;101743;-62
2022/07/10 07:27:50;;;;;;;5.70;5.20;;;;;;;18.15;100.00;96774.91;5051414;27;102777;-62
2022/07/10 07:30:17;;;;;;;5.37;4.87;;;;;;;17.99;100.00;96787.75;5051642;27;101812;-62
2022/07/10 07:32:47;;;;;;;5.30;4.90;;;;;;;17.91;100.00;96784.88;5050400;27;105232;-62
2022/07/10 07:35:16;;;;;;;5.67;5.20;;;;;;;17.85;100.00;96780.66;5051157;27;102508;-62
2022/07/10 07:37:44;;;;;;;5.47;4.97;;;;;;;18.13;100.00;96785.16;5051185;27;102092;-62
2022/07/10 07:40:14;;;;;;;5.30;4.90;;;;;;;18.64;100.00;96788.81;5051494;27;102607;-62
2022/07/10 07:42:42;;;;;;;4.87;4.47;;;;;;;18.66;100.00;96787.44;5049305;27;105716;-62
2022/07/10 07:45:10;;;;;;;5.10;4.70;;;;;;;18.63;100.00;96787.22;5051531;27;102083;-62
2022/07/10 07:47:55;;;;;;;5.13;4.73;;;;;;;18.78;100.00;96779.72;5052765;27;105765;-62
2022/07/10 07:50:23;;;;;;;5.50;4.90;;;;;;;18.20;100.00;96782.94;5045500;27;102310;-62
2022/07/10 07:52:50;;;;;;;5.40;5.00;;;;;;;18.62;100.00;96786.41;5051431;27;101917;-62
2022/07/10 07:55:19;;;;;;;5.77;5.27;;;;;;;18.25;100.00;96793.66;5049415;27;105774;-62
2022/07/10 07:57:47;;;;;;;5.17;4.73;;;;;;;18.44;100.00;96791.78;5051411;27;101737;-62
2022/07/10 08:00:17;;;;;;;5.33;4.57;;;;;;;18.36;100.00;96800.53;5050938;27;102393;-62
2022/07/10 08:02:45;;;;;;;5.27;4.87;;;;;;;18.08;100.00;96809.44;5050290;27;102664;-62
2022/07/10 08:05:13;;;;;;;5.40;4.63;;;;;;;17.93;100.00;96806.94;5049847;27;101991;-62
2022/07/10 08:07:42;;;;;;;5.10;4.70;;;;;;;17.98;100.00;96804.97;5049733;27;103508;-62
2022/07/10 08:10:12;;;;;;;5.23;4.73;;;;;;;18.28;100.00;96799.25;5053757;27;102907;-62
2022/07/10 08:12:40;;;;;;;4.30;4.00;;;;;;;18.38;100.00;96801.84;5050696;27;103707;-62
2022/07/10 08:15:09;;;;;;;5.10;4.70;;;;;;;18.47;100.00;96802.00;5048964;27;105641;-62
2022/07/10 08:17:36;;;;;;;5.13;4.63;;;;;;;18.71;100.00;96800.03;5048646;27;101943;-62
2022/07/10 08:20:05;;;;;;;4.33;3.93;;;;;;;18.70;100.00;96801.91;5051104;27;102329;-62
2022/07/10 08:22:34;;;;;;;4.40;4.00;;;;;;;18.45;100.00;96804.97;5049923;27;103069;-62
2022/07/10 08:25:01;;;;;;;3.70;3.50;;;;;;;18.31;100.00;96792.50;5050773;27;101821;-62
2022/07/10 08:27:28;;;;;;;3.83;3.53;;;;;;;18.99;100.00;96801.75;5050661;27;102372;-62
2022/07/10 08:29:56;;;;;;;4.33;4.03;;;;;;;18.79;100.00;96797.47;5053562;27;102809;-62
2022/07/10 08:32:23;;;;;;;4.07;3.77;;;;;;;18.42;100.00;96799.38;5049434;27;105183;-62
2022/07/10 08:34:50;;;;;;;3.80;3.50;;;;;;;18.67;100.00;96799.00;5049972;27;103172;-62
2022/07/10 08:37:19;;;;;;;3.73;3.43;;;;;;;19.14;100.00;96801.53;5050998;27;101944;-62
2022/07/10 08:39:48;;;;;;;3.80;3.50;;;;;;;18.95;100.00;96800.75;5050579;27;102849;-62
2022/07/10 08:42:17;;;;;;;4.07;3.77;;;;;;;18.68;100.00;96806.00;5049959;27;102708;-62
2022/07/10 08:44:44;;;;;;;4.07;3.77;;;;;;;18.43;100.00;96793.66;5049106;27;101874;-62
2022/07/10 08:47:12;;;;;;;3.90;3.60;;;;;;;18.60;100.00;96796.69;5050129;27;102330;-62
2022/07/10 08:49:45;;;;;;;4.20;3.80;;;;;;;18.82;100.00;96809.56;5050005;27;102975;-62
2022/07/10 08:52:22;;;;;;;4.07;3.77;;;;;;;18.90;100.00;96804.31;5053518;27;101829;-62
2022/07/10 08:54:51;;;;;;;4.70;3.80;;;;;;;18.96;100.00;96803.16;5050151;27;102596;-62
2022/07/10 08:57:21;;;;;;;3.93;3.47;;;;;;;18.87;100.00;96790.63;5050560;27;101786;-62
2022/07/10 08:59:48;;;;;;;4.90;4.00;;;;;;;18.99;100.00;96796.38;5048814;27;105622;-62
2022/07/10 09:02:15;;;;;;;3.77;3.40;;;;;;;18.95;100.00;96798.03;5049755;27;103811;-62
2022/07/10 09:04:43;;;;;;;4.77;4.00;;;;;;;18.83;100.00;96795.00;5050580;27;101838;-62
2022/07/10 09:07:10;;;;;;;3.90;3.63;;;;;;;18.47;100.00;96799.31;5050504;27;102409;-62
2022/07/10 09:12:50;;;;;;;3.83;3.53;;;;;;;18.79;100.00;96789.41;5091801;27;101733;-62
2022/07/10 09:15:19;;;;;;;3.53;3.30;;;;;;;19.57;100.00;96789.50;5087719;27;103053;-62
2022/07/10 09:17:56;;;;;;;3.40;3.10;;;;;;;19.34;100.00;96795.84;5069345;27;101861;-62
2022/07/10 09:20:30;;;;;;;2.80;2.60;;;;;;;19.33;100.00;96788.81;5069499;27;103610;-62
2022/07/10 09:22:59;;;;;;;3.13;2.83;;;;;;;19.51;100.00;96798.78;5068833;27;105185;-62
2022/07/10 09:25:34;;;;;;;3.67;3.23;;;;;;;19.19;100.00;96798.75;5069366;27;102040;-62
2022/07/10 09:28:05;;;;;;;3.00;2.80;;;;;;;19.25;100.00;96793.03;5087570;27;105349;-62
2022/07/10 09:30:34;;;;;;;5.43;3.20;;;;;;;19.41;100.00;96788.16;5087340;27;102555;-62
2022/07/10 09:33:25;;;;;;;2.77;2.57;;;;;;;19.53;100.00;96793.88;5091308;27;101865;-62
2022/07/10 09:36:06;;;;;;;2.50;2.30;;;;;;;19.45;100.00;96802.66;5087488;27;102537;-62
2022/07/10 09:39:00;;;;;;;2.07;1.97;;;;;;;19.78;100.00;96796.13;5087845;27;101826;-62
2022/07/10 09:41:29;;;;;;;4.27;2.70;;;;;;;19.26;100.00;96794.63;5087770;27;102387;-62
2022/07/10 09:44:00;;;;;;;3.20;2.80;;;;;;;19.23;100.00;96807.91;5086853;27;102605;-62
2022/07/10 09:46:29;;;;;;;2.57;2.40;;;;;;;19.13;100.00;96802.63;5087802;27;101748;-62
2022/07/10 09:49:05;;;;;;;2.80;2.60;;;;;;;19.89;100.00;96794.84;5068859;27;105895;-62
2022/07/10 09:51:34;;;;;;;2.27;2.03;;;;;;;19.82;100.00;96792.53;5086508;27;102850;-62
2022/07/10 09:54:03;;;;;;;2.47;1.93;;;;;;;19.51;100.00;96798.78;5087425;27;102343;-62
2022/07/10 09:56:46;;;;;;;2.23;2.10;;;;;;;20.12;100.00;96785.75;5090355;27;102417;-62
2022/07/10 09:59:16;;;;;;;2.40;2.17;;;;;;;20.08;100.00;96782.06;5049951;27;102150;-62
2022/07/10 10:01:46;;;;;;;2.67;2.10;;;;;;;20.37;100.00;96786.03;5087390;27;104332;-62
2022/07/10 10:04:14;;;;;;;1.57;1.47;;;;;;;20.29;100.00;96788.66;5086929;27;102841;-62
2022/07/10 10:06:42;;;;;;;2.67;1.90;;;;;;;19.96;100.00;96784.44;5087152;27;101917;-62
2022/07/10 10:09:16;;;;;;;2.20;1.60;;;;;;;20.23;100.00;96787.16;5087506;27;102337;-62
2022/07/10 10:11:45;;;;;;;2.67;1.60;;;;;;;20.42;100.00;96782.41;5086445;27;102483;-62
2022/07/10 10:14:19;;;;;;;1.80;1.60;;;;;;;20.79;100.00;96782.13;5068606;27;101925;-62
2022/07/10 10:16:48;;;;;;;1.87;1.50;;;;;;;20.45;100.00;96771.84;5087212;27;102268;-62
2022/07/10 10:22:02;;;;;;;2.00;1.70;;;;;;;19.97;100.00;96780.63;5083814;27;102913;-62
2022/07/10 10:24:33;;;;;;;1.73;1.50;;;;;;;20.45;100.00;96771.84;5072690;27;102849;-62
2022/07/10 10:27:00;;;;;;;1.80;1.13;;;;;;;20.54;100.00;96778.09;5073508;27;101750;-62
2022/07/10 10:29:30;;;;;;;1.60;1.30;;;;;;;20.73;100.00;96772.56;5073283;27;103467;-62
2022/07/10 10:31:57;;;;;;;1.60;1.50;;;;;;;20.76;100.00;96775.44;5072180;27;102872;-62
2022/07/10 10:34:41;;;;;;;1.50;1.40;;;;;;;20.80;100.00;96773.72;5088928;27;101973;-62
2022/07/10 10:37:37;;;;;;;2.03;1.57;;;;;;;20.30;100.00;96780.25;5073432;27;102268;-62
2022/07/10 10:40:06;;;;;;;1.97;1.70;;;;;;;20.45;100.00;96771.84;5072408;27;103132;-62
2022/07/10 10:42:35;;;;;;;5.20;1.60;;;;;;;20.02;100.00;96778.66;5057831;27;101859;-62
2022/07/10 10:45:39;;;;;;;1.97;1.60;;;;;;;19.96;100.00;96779.84;5072324;27;102662;-62
2022/07/10 10:48:09;;;;;;;1.77;1.50;;;;;;;19.46;100.00;96778.06;5053790;27;101961;-62
2022/07/10 10:50:41;;;;;;;2.37;1.60;;;;;;;19.38;100.00;96770.69;5054206;27;106298;-62
2022/07/10 10:53:16;;;;;;;3.10;1.83;;;;;;;19.06;100.00;96775.22;5053663;27;103774;-62
2022/07/10 10:56:25;;;;;;;3.00;1.70;;;;;;;19.32;100.00;96771.03;5072702;27;102153;-62
2022/07/10 10:58:53;;;;;;;4.13;1.40;;;;;;;19.58;100.00;96777.59;5053913;27;105204;-62
2022/07/10 11:01:28;;;;;;;1.67;1.57;;;;;;;19.24;100.00;96769.81;5052846;27;103743;-62
2022/07/10 11:04:17;;;;;;;1.40;1.30;;;;;;;19.87;100.00;96768.13;5072247;27;101840;-62
2022/07/10 11:06:46;;;;;;;1.70;1.60;;;;;;;19.59;100.00;96769.22;5075158;27;101871;-62
2022/07/10 11:09:27;;;;;;;1.50;1.40;;;;;;;19.67;100.00;96773.91;5053574;27;102139;-62
2022/07/10 11:12:12;;;;;;;2.00;1.70;;;;;;;20.06;100.00;96759.94;5071850;27;102341;-62
2022/07/10 11:14:42;;;;;;;1.73;1.23;;;;;;;20.75;100.00;96778.44;5072031;27;103229;-62
2022/07/10 11:17:09;;;;;;;1.67;1.30;;;;;;;20.94;100.00;96773.72;5053533;27;102567;-62
2022/07/10 11:19:39;;;;;;;2.50;1.53;;;;;;;20.95;100.00;96769.91;5071970;27;102497;-62
2022/07/10 11:22:48;;;;;;;3.13;1.50;;;;;;;21.15;100.00;96769.41;5052565;27;106657;-62
2022/07/10 11:25:35;;;;;;;2.23;1.60;;;;;;;20.73;100.00;96767.16;5072049;27;102056;-62
2022/07/10 11:28:13;;;;;;;1.87;1.50;;;;;;;20.92;100.00;96765.91;5072037;27;102346;-62
2022/07/10 11:30:48;;;;;;;2.83;1.50;;;;;;;21.22;100.00;96753.56;5074510;27;101770;-62
2022/07/10 11:33:16;;;;;;;2.97;1.47;;;;;;;20.91;100.00;96758.91;5053000;27;105560;-62
2022/07/10 11:35:47;;;;;;;2.10;1.40;;;;;;;20.87;97.05;96757.09;5051504;27;107066;-62
2022/07/10 11:38:20;;;;;;;3.13;1.20;;;;;;;20.69;99.92;96766.97;5072055;27;101743;-62
2022/07/10 11:40:47;;;;;;;1.10;1.10;;;;;;;20.81;98.58;96763.72;5071825;27;102429;-62
2022/07/10 11:43:17;;;;;;;2.63;1.30;;;;;;;20.44;100.00;96764.03;5071139;27;102491;-62
2022/07/10 11:45:45;;;;;;;6.43;1.40;;;;;;;20.03;100.00;96764.03;5071431;27;101902;-62